Van Nuys, CA (91411)

6:51 AM PST on February 20, 2017 (GMT -0800)
Valley Presbyterian | | Change Station

Elev 755 ft 34.20 °N, 118.46 °W | Updated 26 seconds ago

Overcast
Overcast
50.0 °F
Feels Like 50.0 °F
N
0.0
Wind Variable Wind from NNE

Today
High -- | Low -- °F
--% Chance of Precip.
Yesterday
High -- | Low -- °F
Precip. -- in
Pressure 30.19 in
Visibility 6.0 miles
Clouds Mostly Cloudy 600 ft
Overcast 2900 ft
Dew Point 50 °F
Humidity 99%
Rainfall 0.05 in
Snow Depth Not available.
6:32 AM 5:42 PM
Waning Crescent, 33% visible
METAR KVNY 201351Z AUTO 11006KT 6SM BR BKN006 OVC029 11/10 A3019 RMK AO2 RAB00E34 SLP221 P0002 T01060100
Pressure 30.19 in
Visibility 6.0 miles
Clouds Mostly Cloudy 600 ft
Overcast 2900 ft
Dew Point 50 °F
Humidity 99%
Rainfall 0.05 in
Snow Depth Not available.
6:32 AM 5:42 PM
Waning Crescent, 33% visible
METAR KVNY 201351Z AUTO 11006KT 6SM BR BKN006 OVC029 11/10 A3019 RMK AO2 RAB00E34 SLP221 P0002 T01060100

Get Your Daily Forecast Email!

Thanks for signing up!

Be on the lookout for a verification email in your inbox.

You'll start receiving the daily forecast at 8 AM.

×

10-Day Weather Forecast

Almanac

Astronomy

Feb. 20, 2017 Rise Set
Actual Time
Civil Twilight
Nautical Twilight
Astronomical Twilight
Moon
Length of Visible Light
Length of Day
Tomorrow will be .
, % of the Moon is Illuminated

Today's Extremes

State Highs State Lows

Community

WunderPhotos

Upload Photos

1,962,540 photos uploaded!

WunderBlog® & News

Nearby

Air Quality

  Air Quality AQ Index Pollutant
Not available.

Snow Depth

Station Depth Elevation

Earthquake Activity

City Distance Mag. Time & Date
Minimum magnitude displayed is 2.5.

Coastal Water Temperatures

Place Temperature

Stations

Nearby Weather Stations

Station Location Temp. Windchill Dew Point Humidity Wind Precip. Elev Updated Type
                   

Watches & Warnings

There are currently no watches in effect.